Terminal Aerodrome Forecast
Issued by NWS Shreveport, LA

Home | Current Version | Previous Version | Text Only | Print | Product List | Glossary On
Versions: 1 2 3 4 5 6 7 8 9 10 11 12 13 14 15 16
279
FTUS44 KSHV 241720
TAFTXK
TAF
KTXK 241720Z 2418/2518 17010KT P6SM SCT035 OVC250
      TEMPO 2418/2419 BKN025
     FM251100 17007KT P6SM OVC015
     FM251600 18011KT P6SM SCT025 BKN250=

USA.gov is the U.S. government's official web portal to all federal, state and local government web resources and services.